createdAt,value
2023-01-31T00:00:49.461Z,4.90
2023-01-31T00:03:19.498Z,4.90
2023-01-31T00:05:48.000Z,4.80
2023-01-31T00:08:16.652Z,4.80
2023-01-31T00:10:45.100Z,4.80
2023-01-31T00:13:13.634Z,4.80
2023-01-31T00:15:42.318Z,4.70
2023-01-31T00:18:10.839Z,4.60
2023-01-31T00:20:40.663Z,4.50
2023-01-31T00:23:11.924Z,4.60
2023-01-31T00:25:40.360Z,4.60
2023-01-31T00:28:08.851Z,4.60
2023-01-31T00:30:37.587Z,4.50
2023-01-31T00:33:06.581Z,4.50
2023-01-31T00:35:35.074Z,4.50
2023-01-31T00:38:04.980Z,4.50
2023-01-31T00:40:33.425Z,4.50
2023-01-31T00:43:02.024Z,4.60
2023-01-31T00:45:30.772Z,4.60
2023-01-31T00:47:59.219Z,4.60
2023-01-31T00:50:28.785Z,4.60
2023-01-31T00:52:57.509Z,4.60
2023-01-31T00:55:27.410Z,4.70
2023-01-31T00:57:55.870Z,4.60
2023-01-31T01:00:24.584Z,4.60
2023-01-31T01:02:53.201Z,4.70
2023-01-31T01:05:22.167Z,4.70
2023-01-31T01:07:50.950Z,4.70
2023-01-31T01:10:19.601Z,4.70
2023-01-31T01:12:49.578Z,4.80
2023-01-31T01:15:18.478Z,4.70
2023-01-31T01:17:50.703Z,4.70
2023-01-31T01:20:20.081Z,4.80
2023-01-31T01:22:48.609Z,4.80
2023-01-31T01:25:17.190Z,4.80
2023-01-31T01:27:45.669Z,4.90
2023-01-31T01:30:16.933Z,4.90
2023-01-31T01:32:46.741Z,4.90
2023-01-31T01:35:15.264Z,4.90
2023-01-31T01:37:43.775Z,4.90
2023-01-31T01:40:13.289Z,4.90
2023-01-31T01:42:41.919Z,4.90
2023-01-31T01:45:19.315Z,5.00
2023-01-31T01:47:51.999Z,5.00
2023-01-31T01:50:24.508Z,5.00
2023-01-31T01:52:55.666Z,5.10
2023-01-31T01:55:30.647Z,5.10
2023-01-31T01:58:09.468Z,5.10
2023-01-31T02:00:40.016Z,5.10
2023-01-31T02:03:09.779Z,5.10
2023-01-31T02:05:42.565Z,5.00
2023-01-31T02:08:11.519Z,5.00
2023-01-31T02:10:45.545Z,5.00
2023-01-31T02:13:14.500Z,4.90
2023-01-31T02:15:44.487Z,4.90
2023-01-31T02:18:13.683Z,4.80
2023-01-31T02:21:22.260Z,4.70
2023-01-31T02:24:19.460Z,4.70
2023-01-31T02:27:16.700Z,4.60
2023-01-31T02:30:03.575Z,4.60
2023-01-31T02:32:53.827Z,4.60
2023-01-31T02:35:32.201Z,4.60
2023-01-31T02:38:26.597Z,4.60
2023-01-31T02:41:04.859Z,4.50
2023-01-31T02:44:05.388Z,4.60
2023-01-31T02:46:36.988Z,4.60
2023-01-31T02:49:15.467Z,4.70
2023-01-31T02:52:08.270Z,4.80
2023-01-31T02:54:52.277Z,4.80
2023-01-31T02:57:21.209Z,4.80
2023-01-31T02:59:50.401Z,4.80
2023-01-31T03:02:19.451Z,4.80
2023-01-31T03:04:49.530Z,4.70
2023-01-31T03:07:22.340Z,4.70
2023-01-31T03:09:59.661Z,4.70
2023-01-31T03:12:43.919Z,4.80
2023-01-31T03:15:26.747Z,4.80
2023-01-31T03:18:02.001Z,4.90
2023-01-31T03:20:37.267Z,5.00
2023-01-31T03:23:12.354Z,5.00
2023-01-31T03:25:41.809Z,5.00
2023-01-31T03:28:14.319Z,5.10
2023-01-31T03:30:48.452Z,5.10
2023-01-31T03:33:22.680Z,5.10
2023-01-31T03:35:59.717Z,5.20
2023-01-31T03:38:34.177Z,5.20
2023-01-31T03:41:09.710Z,5.20
2023-01-31T03:43:43.648Z,5.20
2023-01-31T03:46:20.073Z,5.30
2023-01-31T03:48:53.550Z,5.30
2023-01-31T03:51:27.359Z,5.30
2023-01-31T03:54:05.813Z,5.30
2023-01-31T03:56:39.695Z,5.30
2023-01-31T03:59:13.055Z,5.30
2023-01-31T04:02:03.330Z,5.20
2023-01-31T04:04:37.455Z,5.20
2023-01-31T04:07:07.726Z,5.20
2023-01-31T04:09:37.677Z,5.20
2023-01-31T04:12:06.814Z,5.10
2023-01-31T04:14:53.835Z,5.10
2023-01-31T04:17:25.144Z,5.10
2023-01-31T04:19:53.624Z,5.00
2023-01-31T04:22:27.515Z,5.00
2023-01-31T04:24:56.054Z,5.00
2023-01-31T04:27:24.493Z,4.90
2023-01-31T04:29:52.949Z,4.90
2023-01-31T04:32:21.446Z,5.00
2023-01-31T04:34:49.857Z,5.00
2023-01-31T04:37:22.894Z,5.00
2023-01-31T04:39:51.456Z,5.10
2023-01-31T04:42:19.875Z,5.10
2023-01-31T04:44:48.415Z,5.20
2023-01-31T04:47:16.806Z,5.20
2023-01-31T04:49:45.326Z,5.30
2023-01-31T04:52:14.036Z,5.30
2023-01-31T04:54:43.861Z,5.30
2023-01-31T04:57:12.300Z,5.40
2023-01-31T04:59:40.846Z,5.40
2023-01-31T05:02:09.524Z,5.40
2023-01-31T05:04:38.033Z,5.50
2023-01-31T05:07:06.796Z,5.50
2023-01-31T05:09:35.314Z,5.60
2023-01-31T05:12:06.395Z,5.60
2023-01-31T05:14:35.045Z,5.70
2023-01-31T05:17:04.392Z,5.70
2023-01-31T05:19:33.036Z,5.70
2023-01-31T05:22:01.718Z,5.70
2023-01-31T05:24:32.736Z,5.70
2023-01-31T05:27:03.421Z,5.70
2023-01-31T05:29:39.713Z,5.70
2023-01-31T05:32:08.708Z,5.80
2023-01-31T05:34:37.269Z,5.80
2023-01-31T05:37:06.078Z,5.80
2023-01-31T05:39:34.815Z,5.80
2023-01-31T05:42:03.292Z,5.80
2023-01-31T05:44:33.256Z,5.80
2023-01-31T05:47:03.858Z,5.80
2023-01-31T05:49:33.793Z,5.80
2023-01-31T05:52:14.176Z,5.80
2023-01-31T05:54:42.648Z,5.80
2023-01-31T05:57:11.135Z,5.80
2023-01-31T05:59:39.581Z,5.70
2023-01-31T06:02:11.503Z,5.70
2023-01-31T06:04:40.317Z,5.70
2023-01-31T06:07:09.916Z,5.60
2023-01-31T06:09:38.911Z,5.60
2023-01-31T06:12:08.295Z,5.60
2023-01-31T06:14:36.779Z,5.60
2023-01-31T06:17:05.284Z,5.60
2023-01-31T06:19:35.185Z,5.60
2023-01-31T06:22:03.707Z,5.60
2023-01-31T06:24:32.204Z,5.60
2023-01-31T06:27:00.717Z,5.60
2023-01-31T06:29:29.239Z,5.70
2023-01-31T06:31:57.684Z,5.60
2023-01-31T06:34:26.195Z,5.70
2023-01-31T06:36:59.110Z,5.70
2023-01-31T06:39:28.064Z,5.70
2023-01-31T06:41:56.608Z,5.80
2023-01-31T06:44:26.578Z,5.70
2023-01-31T06:46:56.164Z,5.80
2023-01-31T06:49:24.706Z,5.80
2023-01-31T06:51:53.485Z,5.80
2023-01-31T06:54:23.334Z,5.80
2023-01-31T06:56:51.746Z,5.80
2023-01-31T06:59:20.175Z,5.80
2023-01-31T07:01:48.714Z,5.70
2023-01-31T07:04:17.155Z,5.70
2023-01-31T07:06:45.578Z,5.60
2023-01-31T07:09:14.195Z,5.70
2023-01-31T07:11:44.021Z,5.70
2023-01-31T07:14:12.549Z,5.70
2023-01-31T07:16:41.061Z,5.80
2023-01-31T07:19:14.381Z,5.70
2023-01-31T07:21:42.840Z,5.80
2023-01-31T07:24:11.594Z,5.80
2023-01-31T07:26:40.175Z,5.80
2023-01-31T07:29:10.415Z,5.80
2023-01-31T07:31:39.210Z,5.80
2023-01-31T07:34:07.685Z,5.80
2023-01-31T07:36:36.259Z,5.80
2023-01-31T07:39:04.849Z,5.80
2023-01-31T07:41:42.636Z,5.80
2023-01-31T07:44:12.635Z,5.70
2023-01-31T07:46:42.236Z,5.70
2023-01-31T07:49:11.652Z,5.70
2023-01-31T07:51:41.305Z,5.60
2023-01-31T07:54:11.958Z,5.60
2023-01-31T07:56:40.605Z,5.60
2023-01-31T07:59:09.034Z,5.60
2023-01-31T08:01:56.265Z,5.60
2023-01-31T08:04:35.291Z,5.60
2023-01-31T08:07:05.873Z,5.60
2023-01-31T08:09:34.467Z,5.60
2023-01-31T08:12:02.858Z,5.60
2023-01-31T08:14:31.575Z,5.60
2023-01-31T08:17:01.480Z,5.60
2023-01-31T08:19:30.596Z,5.60
2023-01-31T08:22:03.577Z,5.60
2023-01-31T08:24:32.085Z,5.70
2023-01-31T08:27:01.467Z,5.70
2023-01-31T08:29:30.864Z,5.60
2023-01-31T08:32:03.323Z,5.60
2023-01-31T08:34:31.985Z,5.60
2023-01-31T08:37:01.142Z,5.60
2023-01-31T08:39:29.630Z,5.60
2023-01-31T08:41:58.211Z,5.60
2023-01-31T08:44:26.660Z,5.60
2023-01-31T08:47:04.908Z,5.70
2023-01-31T08:49:36.375Z,5.70
2023-01-31T08:52:05.224Z,5.70
2023-01-31T08:54:33.676Z,5.70
2023-01-31T08:57:02.103Z,5.70
2023-01-31T08:59:31.378Z,5.70
2023-01-31T09:02:01.409Z,5.70
2023-01-31T09:04:30.118Z,5.70
2023-01-31T09:06:58.626Z,5.80
2023-01-31T09:09:29.092Z,5.80
2023-01-31T09:12:00.795Z,5.80
2023-01-31T09:14:30.418Z,5.80
2023-01-31T09:16:58.909Z,5.80
2023-01-31T09:19:28.882Z,5.80
2023-01-31T09:21:57.335Z,5.80
2023-01-31T09:24:26.007Z,5.80
2023-01-31T09:26:55.715Z,5.80
2023-01-31T09:29:24.266Z,5.90
2023-01-31T09:31:53.756Z,5.90
2023-01-31T09:34:23.194Z,6.00
2023-01-31T09:36:54.292Z,6.00
2023-01-31T09:39:22.716Z,6.00
2023-01-31T09:41:53.733Z,6.00
2023-01-31T09:44:27.626Z,6.00
2023-01-31T09:46:59.307Z,6.00
2023-01-31T09:49:31.861Z,6.10
2023-01-31T09:52:03.847Z,6.10
2023-01-31T09:54:38.717Z,6.10
2023-01-31T09:57:20.666Z,6.10
2023-01-31T09:59:55.252Z,6.20
2023-01-31T10:02:46.892Z,6.20
2023-01-31T10:05:25.508Z,6.20
2023-01-31T10:08:07.909Z,6.20
2023-01-31T10:10:40.289Z,6.20
2023-01-31T10:13:20.821Z,6.30
2023-01-31T10:15:54.399Z,6.30
2023-01-31T10:18:29.152Z,6.30
2023-01-31T10:21:04.876Z,6.30
2023-01-31T10:23:40.221Z,6.30
2023-01-31T10:26:14.971Z,6.40
2023-01-31T10:28:49.733Z,6.40
2023-01-31T10:31:31.995Z,6.50
2023-01-31T10:34:07.290Z,6.60
2023-01-31T10:36:39.408Z,6.60
2023-01-31T10:39:19.781Z,6.60
2023-01-31T10:42:11.398Z,6.60
2023-01-31T10:44:48.513Z,6.60
2023-01-31T10:47:19.665Z,6.60
2023-01-31T10:49:50.110Z,6.60
2023-01-31T10:52:48.078Z,6.60
2023-01-31T10:55:40.879Z,6.60
2023-01-31T10:58:14.814Z,6.60
2023-01-31T11:00:43.526Z,6.70
2023-01-31T11:03:13.837Z,6.70
2023-01-31T11:05:49.123Z,6.70
2023-01-31T11:08:32.938Z,6.70
2023-01-31T11:11:08.267Z,6.60
2023-01-31T11:13:37.139Z,6.60
2023-01-31T11:16:09.587Z,6.70
2023-01-31T11:18:47.367Z,6.70
2023-01-31T11:21:22.941Z,6.60
2023-01-31T11:23:52.571Z,6.60
2023-01-31T11:26:32.301Z,6.70
2023-01-31T11:29:02.500Z,6.70
2023-01-31T11:31:35.356Z,6.70
2023-01-31T11:34:19.583Z,6.70
2023-01-31T11:36:48.484Z,6.70
2023-01-31T11:39:29.555Z,6.80
2023-01-31T11:42:06.534Z,6.80
2023-01-31T11:44:35.058Z,6.80
2023-01-31T11:47:13.298Z,6.90
2023-01-31T11:49:43.907Z,6.90
2023-01-31T11:52:17.809Z,6.90
2023-01-31T11:55:00.852Z,7.00
2023-01-31T11:57:33.597Z,7.00
2023-01-31T12:00:04.397Z,6.90
2023-01-31T12:02:38.369Z,6.90
2023-01-31T12:05:12.633Z,6.90
2023-01-31T12:07:46.957Z,6.90
2023-01-31T12:10:35.502Z,6.90
2023-01-31T12:13:18.859Z,6.90
2023-01-31T12:15:56.159Z,7.00
2023-01-31T12:18:52.671Z,7.00
2023-01-31T12:21:45.579Z,7.00
2023-01-31T12:24:23.491Z,7.10
2023-01-31T12:26:57.186Z,7.20
2023-01-31T12:29:56.457Z,7.10
2023-01-31T12:32:47.423Z,7.20
2023-01-31T12:35:33.828Z,7.30
2023-01-31T12:38:18.017Z,7.30
2023-01-31T12:40:53.366Z,7.20
2023-01-31T12:43:40.936Z,7.20
2023-01-31T12:46:19.873Z,7.20
2023-01-31T12:49:05.481Z,7.30
2023-01-31T12:51:54.726Z,7.30
2023-01-31T12:54:42.491Z,7.30
2023-01-31T12:57:29.509Z,7.40
2023-01-31T13:00:31.604Z,7.50
2023-01-31T13:03:17.307Z,7.60
2023-01-31T13:05:49.671Z,7.80
2023-01-31T13:08:20.683Z,8.00
2023-01-31T13:10:55.889Z,8.10
2023-01-31T13:13:27.825Z,8.20
2023-01-31T13:16:02.631Z,8.00
2023-01-31T13:18:36.799Z,8.00
2023-01-31T13:21:08.817Z,7.90
2023-01-31T13:23:42.591Z,8.00
2023-01-31T13:26:15.135Z,8.00
2023-01-31T13:28:49.543Z,8.00
2023-01-31T13:31:23.486Z,8.10
2023-01-31T13:33:58.972Z,8.00
2023-01-31T13:36:32.806Z,7.90
2023-01-31T13:39:10.608Z,7.80
2023-01-31T13:41:40.889Z,7.80
2023-01-31T13:44:32.104Z,7.90
2023-01-31T13:47:04.757Z,8.00
2023-01-31T13:49:39.136Z,8.00
2023-01-31T13:52:13.619Z,7.90
2023-01-31T13:54:44.272Z,7.90
2023-01-31T13:57:24.667Z,7.90
2023-01-31T14:00:00.955Z,7.80
2023-01-31T14:02:32.555Z,7.80
2023-01-31T14:05:09.495Z,7.70
2023-01-31T14:07:38.025Z,7.70
2023-01-31T14:10:44.232Z,7.60
2023-01-31T14:13:38.958Z,7.60
2023-01-31T14:16:36.545Z,7.60
2023-01-31T14:19:05.792Z,7.60
2023-01-31T14:21:54.166Z,7.60
2023-01-31T14:25:05.303Z,7.50
2023-01-31T14:28:02.448Z,7.50
2023-01-31T14:30:40.619Z,7.50
2023-01-31T14:33:25.018Z,7.50
2023-01-31T14:36:21.130Z,7.50
2023-01-31T14:39:18.411Z,7.50
2023-01-31T14:42:17.073Z,7.50
2023-01-31T14:44:59.775Z,7.50
2023-01-31T14:47:35.353Z,7.60
2023-01-31T14:50:25.420Z,7.60
2023-01-31T14:53:12.207Z,7.60
2023-01-31T14:56:03.722Z,7.60
2023-01-31T14:58:36.687Z,7.60
2023-01-31T15:01:09.276Z,7.60
2023-01-31T15:03:40.662Z,7.60
2023-01-31T15:06:16.239Z,7.70
2023-01-31T15:08:53.450Z,7.70
2023-01-31T15:11:50.424Z,7.60
2023-01-31T15:14:35.565Z,7.60
2023-01-31T15:17:31.581Z,7.60
2023-01-31T15:20:15.294Z,7.60
2023-01-31T15:22:46.955Z,7.60
2023-01-31T15:25:31.094Z,7.60
2023-01-31T15:28:08.899Z,7.50
2023-01-31T15:30:38.443Z,7.50
2023-01-31T15:33:35.706Z,7.50
2023-01-31T15:36:09.747Z,7.50
2023-01-31T15:38:45.259Z,7.40
2023-01-31T15:41:24.287Z,7.30
2023-01-31T15:43:57.171Z,7.20
2023-01-31T15:46:28.091Z,7.20
2023-01-31T15:49:01.055Z,7.00
2023-01-31T15:51:32.331Z,6.80
2023-01-31T15:54:17.518Z,6.60
2023-01-31T15:56:47.390Z,6.60
2023-01-31T15:59:19.425Z,6.40
2023-01-31T16:01:54.207Z,6.30
2023-01-31T16:04:26.131Z,6.30
2023-01-31T16:06:55.746Z,6.30
2023-01-31T16:09:33.720Z,6.30
2023-01-31T16:12:05.352Z,6.30
2023-01-31T16:14:39.666Z,6.30
2023-01-31T16:17:11.095Z,6.40
2023-01-31T16:19:40.809Z,6.40
2023-01-31T16:22:35.375Z,6.40
2023-01-31T16:25:09.665Z,6.50
2023-01-31T16:27:39.994Z,6.50
2023-01-31T16:30:18.440Z,6.50
2023-01-31T16:32:51.612Z,6.60
2023-01-31T16:35:25.210Z,6.60
2023-01-31T16:38:04.327Z,6.60
2023-01-31T16:40:37.684Z,6.50
2023-01-31T16:43:23.951Z,6.50
2023-01-31T16:45:56.175Z,6.50
2023-01-31T16:48:28.122Z,6.50
2023-01-31T16:50:58.956Z,6.60
2023-01-31T16:53:33.812Z,6.60
2023-01-31T16:56:20.942Z,6.60
2023-01-31T16:58:53.750Z,6.60
2023-01-31T17:01:29.167Z,6.60
2023-01-31T17:04:24.310Z,6.50
2023-01-31T17:07:07.276Z,6.50
2023-01-31T17:09:37.142Z,6.50
2023-01-31T17:12:14.341Z,6.40
2023-01-31T17:14:43.109Z,6.40
2023-01-31T17:17:21.508Z,6.30
2023-01-31T17:19:50.472Z,6.30
2023-01-31T17:22:20.165Z,6.30
2023-01-31T17:24:49.321Z,6.30
2023-01-31T17:27:19.918Z,6.20
2023-01-31T17:29:52.774Z,6.20
2023-01-31T17:32:24.609Z,6.20
2023-01-31T17:34:53.418Z,6.20
2023-01-31T17:37:31.112Z,6.20
2023-01-31T17:40:21.813Z,6.20
2023-01-31T17:43:11.188Z,6.20
2023-01-31T17:45:51.045Z,6.20
2023-01-31T17:48:26.972Z,6.20
2023-01-31T17:50:56.670Z,6.20
2023-01-31T17:53:32.137Z,6.20
2023-01-31T17:56:08.243Z,6.20
2023-01-31T17:58:38.511Z,6.20
2023-01-31T18:01:17.450Z,6.30
2023-01-31T18:03:51.217Z,6.30
2023-01-31T18:06:20.284Z,6.30
2023-01-31T18:09:05.294Z,6.30
2023-01-31T18:11:46.475Z,6.30
2023-01-31T18:14:21.082Z,6.30
2023-01-31T18:16:53.192Z,6.30
2023-01-31T18:19:26.275Z,6.40
2023-01-31T18:21:57.113Z,6.40
2023-01-31T18:24:32.394Z,6.50
2023-01-31T18:27:05.787Z,6.40
2023-01-31T18:29:38.595Z,6.40
2023-01-31T18:32:09.777Z,6.40
2023-01-31T18:34:42.107Z,6.40
2023-01-31T18:37:19.656Z,6.40
2023-01-31T18:39:50.604Z,6.40
2023-01-31T18:42:21.919Z,6.50
2023-01-31T18:44:51.703Z,6.50
2023-01-31T18:47:20.951Z,6.50
2023-01-31T18:49:52.032Z,6.50
2023-01-31T18:52:23.892Z,6.50
2023-01-31T18:54:57.124Z,6.60
2023-01-31T18:57:26.111Z,6.60
2023-01-31T18:59:59.592Z,6.50
2023-01-31T19:02:31.624Z,6.50
2023-01-31T19:05:06.271Z,6.50
2023-01-31T19:07:40.890Z,6.50
2023-01-31T19:10:15.405Z,6.40
2023-01-31T19:12:44.155Z,6.30
2023-01-31T19:15:17.895Z,6.30
2023-01-31T19:17:51.951Z,6.30
2023-01-31T19:20:24.771Z,6.30
2023-01-31T19:22:59.149Z,6.30
2023-01-31T19:25:39.757Z,6.30
2023-01-31T19:28:11.084Z,6.30
2023-01-31T19:30:40.734Z,6.30
2023-01-31T19:33:14.836Z,6.30
2023-01-31T19:35:50.745Z,6.40
2023-01-31T19:38:20.778Z,6.40
2023-01-31T19:40:52.928Z,6.30
2023-01-31T19:43:22.091Z,6.30
2023-01-31T19:45:51.479Z,6.30
2023-01-31T19:48:23.989Z,6.40
2023-01-31T19:50:55.894Z,6.40
2023-01-31T19:53:25.535Z,6.50
2023-01-31T19:55:59.693Z,6.50
2023-01-31T19:58:35.387Z,6.50
2023-01-31T20:01:06.784Z,6.50
2023-01-31T20:03:36.752Z,6.60
2023-01-31T20:06:09.680Z,6.50
2023-01-31T20:08:44.863Z,6.50
2023-01-31T20:11:18.551Z,6.50
2023-01-31T20:13:52.455Z,6.50
2023-01-31T20:16:25.629Z,6.40
2023-01-31T20:18:58.285Z,6.40
2023-01-31T20:21:35.641Z,6.40
2023-01-31T20:24:04.427Z,6.40
2023-01-31T20:26:38.237Z,6.40
2023-01-31T20:29:09.210Z,6.40
2023-01-31T20:31:42.033Z,6.50
2023-01-31T20:34:15.569Z,6.50
2023-01-31T20:36:48.949Z,6.50
2023-01-31T20:39:22.360Z,6.50
2023-01-31T20:41:51.443Z,6.60
2023-01-31T20:44:28.136Z,6.50
2023-01-31T20:47:03.113Z,6.50
2023-01-31T20:49:32.483Z,6.50
2023-01-31T20:52:06.543Z,6.40
2023-01-31T20:54:37.588Z,6.40
2023-01-31T20:57:07.051Z,6.40
2023-01-31T20:59:40.875Z,6.30
2023-01-31T21:02:13.012Z,6.30
2023-01-31T21:04:41.966Z,6.30
2023-01-31T21:07:12.879Z,6.20
2023-01-31T21:09:41.389Z,6.10
2023-01-31T21:12:11.907Z,6.20
2023-01-31T21:14:40.918Z,6.20
2023-01-31T21:17:09.609Z,6.10
2023-01-31T21:19:38.266Z,6.10
2023-01-31T21:22:06.966Z,6.00
2023-01-31T21:24:37.243Z,6.00
2023-01-31T21:27:05.896Z,6.00
2023-01-31T21:29:34.498Z,6.00
2023-01-31T21:32:02.967Z,6.00
2023-01-31T21:34:31.715Z,6.00
2023-01-31T21:37:00.156Z,6.00
2023-01-31T21:39:28.659Z,6.00
2023-01-31T21:42:15.682Z,5.90
2023-01-31T21:44:44.733Z,6.00
2023-01-31T21:47:14.203Z,6.00
2023-01-31T21:49:43.235Z,6.10
2023-01-31T21:52:11.689Z,6.10
2023-01-31T21:54:40.190Z,6.10
2023-01-31T21:57:10.064Z,6.00
2023-01-31T21:59:39.139Z,6.00
2023-01-31T22:02:08.212Z,6.00
2023-01-31T22:04:36.871Z,6.00
2023-01-31T22:07:05.328Z,6.00
2023-01-31T22:09:33.759Z,6.00
2023-01-31T22:12:02.428Z,6.00
2023-01-31T22:14:32.311Z,6.00
2023-01-31T22:17:00.715Z,6.00
2023-01-31T22:19:29.167Z,5.90
2023-01-31T22:21:57.786Z,5.90
2023-01-31T22:24:26.373Z,5.90
2023-01-31T22:26:54.825Z,6.00
2023-01-31T22:29:23.348Z,6.00
2023-01-31T22:31:54.915Z,6.00
2023-01-31T22:34:23.435Z,6.10
2023-01-31T22:36:51.861Z,6.10
2023-01-31T22:39:20.348Z,6.10
2023-01-31T22:41:48.833Z,6.10
2023-01-31T22:44:17.240Z,6.20
2023-01-31T22:46:45.782Z,6.10
2023-01-31T22:49:15.656Z,6.10
2023-01-31T22:51:44.413Z,6.20
2023-01-31T22:54:14.759Z,6.20
2023-01-31T22:56:43.185Z,6.20
2023-01-31T22:59:11.688Z,6.30
2023-01-31T23:01:40.504Z,6.30
2023-01-31T23:04:10.022Z,6.30
2023-01-31T23:06:39.975Z,6.30
2023-01-31T23:09:08.768Z,6.40
2023-01-31T23:11:38.112Z,6.40
2023-01-31T23:14:07.520Z,6.40
2023-01-31T23:16:53.514Z,6.40
2023-01-31T23:19:22.029Z,6.40
2023-01-31T23:21:52.074Z,6.40
2023-01-31T23:24:20.594Z,6.40
2023-01-31T23:26:49.115Z,6.30
2023-01-31T23:29:17.657Z,6.30
2023-01-31T23:31:47.759Z,6.30
2023-01-31T23:34:16.451Z,6.30
2023-01-31T23:36:44.956Z,6.30
2023-01-31T23:39:15.203Z,6.30
2023-01-31T23:41:43.725Z,6.30
2023-01-31T23:44:12.197Z,6.30
2023-01-31T23:46:40.859Z,6.30
2023-01-31T23:49:09.479Z,6.30
2023-01-31T23:51:38.030Z,6.30
2023-01-31T23:54:06.631Z,6.30
2023-01-31T23:56:36.598Z,6.30
2023-01-31T23:59:05.137Z,6.30
